Time;durP1;ratioP1;P1;durP2;ratioP2;P2;SDS_P1;SDS_P2;PMS_P1;PMS_P2;Temp;Humidity;BMP_temperature;BMP_pressure;BME280_temperature;BME280_humidity;BME280_pressure;Samples;Min_cycle;Max_cycle;Signal;HPM_P1;HPM_P2
2021/05/25 00:01:34;;;;;;;1.20;0.85;;;;;;;10.45;97.39;100544.41;6224159;28;20049;-78
2021/05/25 00:04:35;;;;;;;1.55;0.85;;;;;;;10.49;97.26;100538.00;6223758;28;20050;-78
2021/05/25 00:07:36;;;;;;;3.00;0.70;;;;;;;10.46;96.75;100533.78;6223546;28;20437;-78
2021/05/25 00:10:37;;;;;;;2.17;0.88;;;;;;;10.38;97.32;100534.22;6223082;28;20053;-79
2021/05/25 00:13:38;;;;;;;2.88;0.80;;;;;;;10.35;97.96;100525.66;6223683;28;20042;-79
2021/05/25 00:16:40;;;;;;;2.08;0.82;;;;;;;10.30;97.05;100520.66;6223061;28;20077;-78
2021/05/25 00:19:41;;;;;;;2.13;0.95;;;;;;;10.22;97.64;100512.34;6223417;28;20046;-78
2021/05/25 00:22:42;;;;;;;2.80;0.90;;;;;;;10.20;97.86;100510.72;6223020;28;20068;-78
2021/05/25 00:25:43;;;;;;;1.40;1.00;;;;;;;10.14;98.57;100532.91;6223131;28;20050;-78
2021/05/25 00:28:44;;;;;;;2.85;1.10;;;;;;;10.13;98.58;100539.13;6223580;28;20050;-78
2021/05/25 00:31:45;;;;;;;1.50;1.02;;;;;;;10.14;97.71;100548.69;6223553;28;20050;-78
2021/05/25 00:34:46;;;;;;;1.30;0.90;;;;;;;10.12;97.25;100537.38;6223073;28;20405;-78
2021/05/25 00:37:47;;;;;;;1.98;0.95;;;;;;;10.04;96.97;100543.09;6222356;28;20046;-78
2021/05/25 00:40:48;;;;;;;2.38;1.00;;;;;;;10.03;98.34;100557.13;6223107;28;20096;-78
2021/05/25 00:43:49;;;;;;;1.48;0.80;;;;;;;10.06;96.88;100567.47;6222903;28;20652;-78
2021/05/25 00:46:52;;;;;;;2.67;1.00;;;;;;;9.97;97.60;100562.72;6222881;28;20428;-78
2021/05/25 00:49:54;;;;;;;1.80;0.80;;;;;;;9.99;97.65;100558.25;6223029;28;20061;-78
2021/05/25 00:52:57;;;;;;;1.42;1.00;;;;;;;10.03;96.61;100551.88;6222980;28;20046;-78
2021/05/25 00:55:58;;;;;;;2.35;1.00;;;;;;;10.01;96.86;100553.75;6222924;28;20061;-78
2021/05/25 00:59:00;;;;;;;3.28;0.95;;;;;;;10.00;96.39;100545.97;6222885;28;20050;-78
2021/05/25 01:02:02;;;;;;;1.40;0.90;;;;;;;10.00;96.65;100551.22;6222782;28;20112;-78
2021/05/25 01:05:04;;;;;;;0.90;0.75;;;;;;;10.06;96.21;100556.13;6222512;28;20046;-78
2021/05/25 01:08:07;;;;;;;4.15;1.20;;;;;;;10.08;95.90;100560.38;6222522;28;20057;-77
2021/05/25 01:11:10;;;;;;;1.42;0.95;;;;;;;10.10;95.83;100563.75;6222541;28;20180;-78
2021/05/25 01:14:11;;;;;;;1.38;0.95;;;;;;;10.22;95.69;100572.75;6222356;28;20068;-79
2021/05/25 01:17:13;;;;;;;2.65;1.00;;;;;;;10.21;96.05;100570.19;6222443;28;20145;-78
2021/05/25 01:20:15;;;;;;;1.90;0.70;;;;;;;10.20;96.22;100577.22;6222838;28;20046;-78
2021/05/25 01:23:17;;;;;;;3.90;1.08;;;;;;;10.28;95.56;100584.72;6222476;28;20116;-78
2021/05/25 01:26:19;;;;;;;2.08;1.00;;;;;;;10.34;96.20;100587.84;6222428;28;20057;-78
2021/05/25 01:29:19;;;;;;;1.10;0.85;;;;;;;10.33;95.62;100585.31;6222511;28;20057;-77
2021/05/25 01:32:20;;;;;;;3.83;1.10;;;;;;;10.23;95.40;100590.19;6222679;28;20050;-78
2021/05/25 01:35:23;;;;;;;1.02;0.80;;;;;;;10.21;95.26;100596.44;6222218;28;20073;-78
2021/05/25 01:38:26;;;;;;;2.30;1.02;;;;;;;10.15;96.86;100608.13;6221905;28;20045;-78
2021/05/25 01:41:27;;;;;;;2.88;1.20;;;;;;;10.19;96.71;100604.41;6222415;28;20050;-79
2021/05/25 01:44:28;;;;;;;3.95;0.98;;;;;;;10.12;97.43;100611.75;6223721;28;20046;-79
2021/05/25 01:47:29;;;;;;;3.17;1.10;;;;;;;10.02;98.56;100610.56;6223617;28;20069;-78
2021/05/25 01:50:30;;;;;;;1.60;1.10;;;;;;;9.91;99.02;100615.53;6224598;28;20129;-79
2021/05/25 01:53:31;;;;;;;3.55;1.10;;;;;;;9.80;99.59;100607.38;6227193;28;20050;-78
2021/05/25 01:56:32;;;;;;;1.65;1.10;;;;;;;9.79;99.45;100608.31;6226799;28;20053;-79
2021/05/25 01:59:33;;;;;;;3.05;1.00;;;;;;;9.78;100.00;100607.47;6227824;28;20053;-78
2021/05/25 02:02:34;;;;;;;1.00;0.70;;;;;;;9.80;98.86;100607.38;6227462;28;20057;-78
2021/05/25 02:05:36;;;;;;;2.90;0.80;;;;;;;9.65;99.26;100607.25;6226942;28;20460;-79
2021/05/25 02:08:39;;;;;;;2.35;0.90;;;;;;;9.67;100.00;100615.03;6226958;28;20050;-78
2021/05/25 02:11:40;;;;;;;1.63;1.30;;;;;;;9.61;100.00;100608.31;6226625;28;20054;-77
2021/05/25 02:14:41;;;;;;;1.52;1.00;;;;;;;9.59;100.00;100606.72;6226563;28;20049;-78
2021/05/25 02:17:41;;;;;;;3.35;1.00;;;;;;;9.58;100.00;100602.38;6226274;28;20137;-78
2021/05/25 02:20:47;;;;;;;3.38;1.55;;;;;;;9.60;100.00;100604.00;6226714;28;20085;-79
2021/05/25 02:23:50;;;;;;;1.95;1.10;;;;;;;9.61;100.00;100594.38;6226025;28;20046;-79
2021/05/25 02:26:50;;;;;;;2.80;1.27;;;;;;;9.62;100.00;100606.56;6226485;28;20513;-78
2021/05/25 02:29:51;;;;;;;3.75;1.08;;;;;;;9.64;100.00;100605.56;6226354;28;20050;-79
2021/05/25 02:32:52;;;;;;;3.13;1.20;;;;;;;9.77;100.00;100610.19;6226038;28;20046;-79
2021/05/25 02:35:55;;;;;;;1.75;1.30;;;;;;;9.68;100.00;100602.78;6225955;28;20057;-79
2021/05/25 02:38:56;;;;;;;2.35;1.20;;;;;;;9.69;100.00;100609.72;6226564;28;20520;-79
2021/05/25 02:41:57;;;;;;;4.68;1.45;;;;;;;9.73;100.00;100613.88;6225903;28;20053;-78
2021/05/25 02:44:58;;;;;;;2.75;1.70;;;;;;;9.69;100.00;100605.31;6226076;28;20558;-78
2021/05/25 02:47:59;;;;;;;2.95;1.55;;;;;;;9.66;100.00;100606.31;6226062;28;20046;-78
2021/05/25 02:51:00;;;;;;;5.53;1.88;;;;;;;9.64;100.00;100607.34;6226518;28;20049;-78
2021/05/25 02:54:02;;;;;;;3.78;2.20;;;;;;;9.70;100.00;100607.00;6226363;28;20050;-78
2021/05/25 02:57:03;;;;;;;3.53;2.10;;;;;;;9.74;99.19;100610.31;6225596;28;20053;-79
2021/05/25 03:00:06;;;;;;;2.33;2.00;;;;;;;9.58;97.31;100608.50;6226187;28;20065;-78
2021/05/25 03:03:08;;;;;;;3.83;2.20;;;;;;;9.55;97.05;100611.28;6225409;28;20062;-78
2021/05/25 03:06:09;;;;;;;3.53;2.08;;;;;;;9.52;97.02;100611.41;6225285;28;20050;-78
2021/05/25 03:09:11;;;;;;;4.07;1.80;;;;;;;9.50;95.37;100610.66;6225277;28;20137;-78
2021/05/25 03:12:11;;;;;;;4.72;1.83;;;;;;;9.45;95.26;100617.06;6225259;28;20061;-77
2021/05/25 03:15:15;;;;;;;4.10;3.03;;;;;;;9.46;93.18;100619.63;6225243;28;20528;-78
2021/05/25 03:18:17;;;;;;;4.13;1.38;;;;;;;9.46;92.14;100619.63;6245290;23;20104;-76
2021/05/25 03:21:18;;;;;;;2.33;1.50;;;;;;;9.37;91.75;100613.06;6223929;28;20053;-75
2021/05/25 03:24:21;;;;;;;5.18;1.38;;;;;;;9.34;90.85;100623.69;6223749;28;20096;-77
2021/05/25 03:27:21;;;;;;;3.67;1.60;;;;;;;9.35;90.09;100621.91;6201594;28;20058;-77
2021/05/25 03:30:24;;;;;;;1.63;1.10;;;;;;;9.34;90.24;100630.72;6203764;28;20064;-76
2021/05/25 03:33:25;;;;;;;3.55;1.40;;;;;;;9.34;90.84;100628.94;6220747;28;20081;-77
2021/05/25 03:36:26;;;;;;;4.20;1.38;;;;;;;9.30;91.44;100634.41;6217824;28;20053;-77
2021/05/25 03:39:28;;;;;;;3.92;1.30;;;;;;;9.28;91.89;100637.13;6223718;28;20049;-77
2021/05/25 03:42:29;;;;;;;2.83;1.30;;;;;;;9.34;91.28;100644.66;6223405;28;20050;-76
2021/05/25 03:45:30;;;;;;;4.25;1.48;;;;;;;9.32;91.03;100640.44;6223272;28;20049;-76
2021/05/25 03:48:30;;;;;;;3.67;1.20;;;;;;;9.30;90.64;100645.75;6223122;28;20050;-77
2021/05/25 03:51:32;;;;;;;3.50;1.20;;;;;;;9.40;89.56;100651.38;6215179;28;20050;-74
2021/05/25 03:54:36;;;;;;;2.10;1.17;;;;;;;9.37;88.96;100646.31;6222866;28;20057;-75
2021/05/25 04:00:57;;;;;;;7.00;1.65;;;;;;;9.40;90.09;100647.00;6198625;28;20050;-76
2021/05/25 04:03:58;;;;;;;2.63;1.48;;;;;;;9.37;89.05;100651.56;6198639;28;20042;-75
2021/05/25 04:06:59;;;;;;;3.35;1.90;;;;;;;9.51;88.85;100656.09;6198295;28;20556;-77
2021/05/25 04:10:01;;;;;;;3.80;1.83;;;;;;;9.42;89.26;100657.41;6198334;28;20113;-75
2021/05/25 04:13:02;;;;;;;4.43;1.98;;;;;;;9.42;88.90;100652.16;6197756;28;20057;-77
2021/05/25 04:16:03;;;;;;;4.80;2.13;;;;;;;9.48;89.54;100651.84;6197796;28;20050;-77
2021/05/25 04:19:04;;;;;;;13.73;2.28;;;;;;;9.54;88.62;100655.97;6200205;28;20373;-77
2021/05/25 04:22:05;;;;;;;5.10;1.92;;;;;;;9.54;88.73;100656.81;6208772;28;20054;-77
2021/05/25 04:25:08;;;;;;;2.83;2.08;;;;;;;9.66;85.85;100666.66;6209602;28;20048;-74
2021/05/25 04:28:09;;;;;;;3.45;2.00;;;;;;;9.64;86.92;100665.06;6220943;28;20057;-75
2021/05/25 04:31:10;;;;;;;2.72;1.80;;;;;;;9.72;86.96;100664.66;6222530;28;20046;-74
2021/05/25 04:34:11;;;;;;;2.10;1.73;;;;;;;9.66;87.79;100665.81;6222455;28;20056;-74
2021/05/25 04:37:12;;;;;;;4.20;1.85;;;;;;;9.64;89.04;100665.06;6221926;28;20061;-73
2021/05/25 04:40:15;;;;;;;4.20;1.77;;;;;;;9.72;88.28;100676.03;6216334;28;20501;-75
2021/05/25 04:43:16;;;;;;;4.18;1.55;;;;;;;9.70;86.17;100677.00;6210228;28;20045;-74
2021/05/25 04:46:17;;;;;;;3.13;2.10;;;;;;;9.77;87.06;100675.78;6197578;28;20047;-74
2021/05/25 04:49:17;;;;;;;6.57;1.77;;;;;;;9.83;85.62;100671.06;6197646;28;20524;-74
2021/05/25 04:52:18;;;;;;;3.90;1.75;;;;;;;9.87;85.26;100666.50;6197863;28;20430;-72
2021/05/25 04:55:21;;;;;;;4.00;1.70;;;;;;;9.93;86.03;100681.09;6197551;28;20172;-74
2021/05/25 04:58:22;;;;;;;3.00;1.98;;;;;;;9.93;84.77;100676.66;6197716;28;20054;-74
2021/05/25 05:01:23;;;;;;;3.55;1.92;;;;;;;9.83;85.57;100683.34;6197590;28;20054;-74
2021/05/25 05:04:24;;;;;;;3.45;2.35;;;;;;;9.91;85.65;100683.78;6197201;28;20413;-74
2021/05/25 05:07:25;;;;;;;2.28;1.73;;;;;;;9.85;86.28;100691.97;6197470;28;20497;-73
2021/05/25 05:10:26;;;;;;;2.22;1.83;;;;;;;9.82;86.42;100684.28;6197291;28;20521;-74
2021/05/25 05:13:27;;;;;;;5.28;1.67;;;;;;;9.78;87.77;100693.22;6197393;28;20051;-74
2021/05/25 05:16:28;;;;;;;1.65;1.40;;;;;;;9.87;86.73;100698.00;6197153;28;20053;-74
2021/05/25 05:19:29;;;;;;;3.40;1.48;;;;;;;9.89;86.18;100694.34;6197587;28;20155;-74
2021/05/25 05:22:30;;;;;;;3.13;1.48;;;;;;;9.80;86.06;100694.81;6197373;28;20426;-73
2021/05/25 05:25:31;;;;;;;2.53;1.23;;;;;;;9.77;86.55;100696.78;6206637;28;20046;-74
2021/05/25 05:28:32;;;;;;;3.20;1.10;;;;;;;9.72;85.16;100699.63;6213576;28;20062;-74
2021/05/25 05:31:33;;;;;;;9.13;1.30;;;;;;;9.77;85.89;100704.66;6211645;28;20080;-73
2021/05/25 05:34:34;;;;;;;3.47;1.58;;;;;;;9.78;85.95;100706.34;6213663;28;20097;-74
2021/05/25 05:37:35;;;;;;;8.07;1.88;;;;;;;9.67;86.72;100704.25;6211096;28;20057;-74
2021/05/25 05:40:37;;;;;;;3.25;1.80;;;;;;;9.64;88.30;100707.88;6213819;28;20053;-74
2021/05/25 05:43:38;;;;;;;2.60;1.52;;;;;;;9.64;89.73;100701.78;6211227;28;20050;-74
2021/05/25 05:46:39;;;;;;;3.83;1.73;;;;;;;9.69;88.50;100712.91;6212933;28;20555;-74
2021/05/25 05:49:40;;;;;;;5.70;1.90;;;;;;;9.69;89.02;100701.56;6211352;28;20120;-74
2021/05/25 05:52:42;;;;;;;4.10;1.80;;;;;;;9.69;89.37;100704.19;6203402;28;20051;-74
2021/05/25 05:55:43;;;;;;;8.13;2.33;;;;;;;9.82;89.00;100705.25;6201563;28;20061;-74
2021/05/25 05:58:44;;;;;;;2.97;1.83;;;;;;;9.83;87.71;100715.69;6201899;28;20076;-73
2021/05/25 06:01:45;;;;;;;5.57;2.35;;;;;;;9.82;87.71;100713.13;6201392;28;20054;-73
2021/05/25 06:04:46;;;;;;;5.35;2.13;;;;;;;9.83;87.26;100707.81;6201300;28;20490;-73
2021/05/25 06:07:47;;;;;;;9.07;2.25;;;;;;;9.90;87.83;100724.06;6201336;28;20050;-72
2021/05/25 06:10:51;;;;;;;5.85;2.25;;;;;;;9.93;88.37;100712.56;6201212;28;20089;-73
2021/05/25 06:13:52;;;;;;;8.50;2.90;;;;;;;10.09;84.33;100721.38;6201198;28;20054;-74
2021/05/25 06:16:53;;;;;;;3.63;2.58;;;;;;;10.15;84.42;100711.38;6200771;28;20078;-74
2021/05/25 06:19:54;;;;;;;7.95;2.92;;;;;;;9.92;86.26;100709.13;6201253;28;20054;-73
2021/05/25 06:22:55;;;;;;;6.22;2.67;;;;;;;9.96;86.62;100710.66;6200970;28;20046;-73
2021/05/25 06:25:58;;;;;;;6.75;2.95;;;;;;;10.03;85.81;100717.25;6200684;28;20516;-74
2021/05/25 06:28:59;;;;;;;7.20;3.00;;;;;;;10.15;82.99;100716.63;6200623;28;20097;-74
2021/05/25 06:32:01;;;;;;;7.88;2.30;;;;;;;10.15;83.33;100719.28;6200593;28;20112;-73
2021/05/25 06:35:02;;;;;;;4.25;2.30;;;;;;;10.13;82.83;100717.66;6200535;28;20108;-74
2021/05/25 06:38:03;;;;;;;6.57;2.53;;;;;;;10.30;80.94;100719.44;6199335;28;20054;-74
2021/05/25 06:41:05;;;;;;;4.78;2.30;;;;;;;10.35;82.04;100720.03;6200418;28;20050;-73
2021/05/25 06:44:06;;;;;;;3.65;2.42;;;;;;;10.52;83.02;100722.63;6213191;28;20041;-74
2021/05/25 06:47:07;;;;;;;8.10;2.38;;;;;;;10.45;80.43;100736.19;6213987;28;20051;-73
2021/05/25 06:50:09;;;;;;;5.20;2.22;;;;;;;10.46;81.04;100725.56;6224155;28;20390;-73
2021/05/25 06:53:10;;;;;;;4.93;2.38;;;;;;;10.50;80.72;100724.50;6217036;28;20046;-72
2021/05/25 06:56:12;;;;;;;6.65;2.38;;;;;;;10.47;79.92;100726.41;6224356;28;20056;-74
2021/05/25 06:59:13;;;;;;;3.83;2.22;;;;;;;10.59;80.96;100726.63;6224266;28;20058;-75
2021/05/25 07:02:14;;;;;;;8.00;2.20;;;;;;;10.68;78.61;100732.31;6224196;28;20054;-74
2021/05/25 07:05:15;;;;;;;5.43;1.92;;;;;;;10.70;75.69;100735.69;6224390;28;20506;-75
2021/05/25 07:08:16;;;;;;;7.43;2.10;;;;;;;10.59;77.34;100739.75;6224076;28;20137;-75
2021/05/25 07:11:18;;;;;;;5.10;1.90;;;;;;;10.54;77.17;100743.56;6224098;28;20049;-75
2021/05/25 07:14:18;;;;;;;8.43;2.03;;;;;;;10.48;78.15;100730.75;6224207;28;20512;-76
2021/05/25 07:17:19;;;;;;;8.35;2.10;;;;;;;10.57;77.80;100732.88;6223527;28;20050;-74
2021/05/25 07:20:20;;;;;;;6.82;2.28;;;;;;;10.55;79.25;100729.50;6223968;28;20132;-76
2021/05/25 07:23:21;;;;;;;6.95;2.03;;;;;;;10.81;78.02;100733.31;6224056;28;20073;-77
2021/05/25 07:26:23;;;;;;;9.23;2.00;;;;;;;11.05;76.43;100729.38;6224214;28;20073;-74
2021/05/25 07:29:24;;;;;;;5.78;2.47;;;;;;;10.89;74.38;100731.13;6223463;28;20050;-73
2021/05/25 07:32:25;;;;;;;2.70;1.70;;;;;;;10.91;72.92;100745.06;6223975;28;20049;-73
2021/05/25 07:35:26;;;;;;;5.00;1.60;;;;;;;10.89;73.42;100739.00;6223428;28;20184;-73
2021/05/25 07:38:27;;;;;;;6.18;2.15;;;;;;;10.85;75.57;100753.25;6223349;28;20123;-74
2021/05/25 07:41:28;;;;;;;5.75;2.15;;;;;;;10.92;72.90;100738.84;6223250;28;20054;-75
2021/05/25 07:44:29;;;;;;;6.55;2.28;;;;;;;10.95;73.99;100749.22;6221560;28;20046;-75
2021/05/25 07:47:30;;;;;;;6.45;2.20;;;;;;;11.01;73.53;100748.03;6222687;28;20096;-76
2021/05/25 07:50:31;;;;;;;7.30;2.08;;;;;;;11.01;74.83;100743.63;6223582;28;20489;-76
2021/05/25 07:53:32;;;;;;;7.65;2.45;;;;;;;11.05;73.38;100747.78;6223309;28;20061;-75
2021/05/25 07:56:35;;;;;;;5.57;2.30;;;;;;;11.13;73.89;100748.19;6222719;28;20046;-76
2021/05/25 07:59:37;;;;;;;4.00;2.20;;;;;;;11.09;74.08;100756.34;6222268;28;20208;-74
2021/05/25 08:02:38;;;;;;;3.58;2.25;;;;;;;11.01;74.44;100750.66;6222780;28;20560;-75
2021/05/25 08:05:39;;;;;;;5.05;2.08;;;;;;;10.96;76.14;100763.22;6223147;28;20049;-77
2021/05/25 08:08:40;;;;;;;7.15;2.47;;;;;;;10.86;75.29;100760.25;6222824;28;20104;-76
2021/05/25 08:11:43;;;;;;;3.35;1.90;;;;;;;10.83;75.38;100757.75;6222363;28;20061;-76
2021/05/25 08:14:44;;;;;;;4.10;1.90;;;;;;;10.92;75.36;100771.25;6222381;28;20133;-76
2021/05/25 08:17:52;;;;;;;4.95;1.90;;;;;;;10.91;75.12;100768.72;6221931;28;20046;-74
2021/05/25 08:20:53;;;;;;;4.57;1.70;;;;;;;10.99;74.70;100769.16;6222432;28;20504;-75
2021/05/25 08:23:54;;;;;;;2.80;1.45;;;;;;;10.98;72.78;100770.06;6222128;28;20058;-76
2021/05/25 08:26:55;;;;;;;6.20;1.95;;;;;;;11.04;73.38;100776.78;6223735;28;20050;-77
2021/05/25 08:29:56;;;;;;;4.40;1.55;;;;;;;10.95;74.44;100764.16;6224469;28;20053;-76
2021/05/25 08:32:57;;;;;;;1.70;1.33;;;;;;;10.93;75.05;100772.94;6226122;28;20045;-77
2021/05/25 08:35:59;;;;;;;2.47;1.42;;;;;;;10.80;75.95;100774.53;6218620;28;20129;-76
2021/05/25 08:39:00;;;;;;;3.75;1.60;;;;;;;10.74;79.01;100774.03;6211709;28;20048;-75
2021/05/25 08:42:03;;;;;;;4.97;1.98;;;;;;;10.64;81.65;100781.56;6212209;28;20474;-77
2021/05/25 08:45:05;;;;;;;4.38;2.10;;;;;;;10.53;82.67;100778.63;6200530;28;20414;-75
2021/05/25 08:48:07;;;;;;;3.00;1.52;;;;;;;10.52;84.14;100783.03;6197945;28;20046;-77
2021/05/25 08:51:09;;;;;;;3.92;1.30;;;;;;;10.61;83.21;100782.56;6208747;28;20049;-76
2021/05/25 08:54:10;;;;;;;6.10;1.67;;;;;;;10.66;82.89;100779.69;6219408;28;20161;-77
2021/05/25 08:57:13;;;;;;;5.63;1.58;;;;;;;10.73;82.90;100786.34;6208683;28;20049;-76
2021/05/25 09:00:15;;;;;;;3.75;1.48;;;;;;;10.84;83.51;100777.84;6214776;28;20045;-76
2021/05/25 09:03:16;;;;;;;4.45;1.38;;;;;;;10.90;81.16;100782.78;6224746;28;20050;-76
2021/05/25 09:06:17;;;;;;;5.57;2.45;;;;;;;10.97;80.32;100781.53;6217687;28;20053;-77
2021/05/25 09:09:19;;;;;;;4.53;1.40;;;;;;;10.99;77.24;100794.56;6219960;28;20045;-76
2021/05/25 09:12:21;;;;;;;2.67;1.67;;;;;;;10.91;77.05;100787.97;6227940;28;20049;-77
2021/05/25 09:15:34;;;;;;;4.95;1.38;;;;;;;11.08;76.90;100789.69;6226484;28;20061;-76
2021/05/25 09:18:45;;;;;;;3.45;1.40;;;;;;;11.07;76.39;100787.13;6230673;28;20527;-77
2021/05/25 09:21:46;;;;;;;4.57;1.10;;;;;;;11.18;76.25;100780.34;6251708;23;20109;-74
2021/05/25 09:24:47;;;;;;;2.38;1.10;;;;;;;11.39;74.25;100774.81;6224498;28;20133;-76
2021/05/25 09:27:59;;;;;;;4.45;1.42;;;;;;;11.05;74.69;100779.34;6225581;28;20100;-75
2021/05/25 09:31:00;;;;;;;4.05;1.80;;;;;;;10.90;79.11;100799.44;6223976;28;20050;-75
2021/05/25 09:34:06;;;;;;;2.42;1.40;;;;;;;10.19;83.33;100795.28;6218129;28;20486;-75
2021/05/25 09:37:09;;;;;;;1.60;1.30;;;;;;;9.44;89.55;100802.44;6209900;28;20050;-73
2021/05/25 09:40:11;;;;;;;3.30;1.90;;;;;;;8.73;95.46;100810.09;6206124;28;20491;-74
2021/05/25 09:43:18;;;;;;;4.57;1.52;;;;;;;8.51;96.39;100825.06;6215461;28;20073;-75
2021/05/25 09:46:22;;;;;;;2.85;1.77;;;;;;;8.34;98.29;100823.13;6202177;28;20050;-75
2021/05/25 09:49:22;;;;;;;3.63;1.77;;;;;;;8.24;100.00;100827.06;6225940;28;20092;-75
2021/05/25 09:52:23;;;;;;;4.93;1.50;;;;;;;8.11;100.00;100814.47;6225568;28;20120;-75
2021/05/25 09:55:24;;;;;;;4.03;1.67;;;;;;;8.10;100.00;100812.78;6217356;28;20076;-75
2021/05/25 09:58:38;;;;;;;4.57;2.70;;;;;;;8.29;100.00;100801.53;6221613;28;20096;-75
2021/05/25 10:01:39;;;;;;;5.13;2.50;;;;;;;8.54;100.00;100794.34;6226005;28;20525;-76
2021/05/25 10:04:57;;;;;;;2.33;2.08;;;;;;;8.79;100.00;100788.00;6225623;28;20042;-75
2021/05/25 10:08:00;;;;;;;6.70;1.80;;;;;;;9.04;100.00;100785.13;6225551;28;20050;-75
2021/05/25 10:11:01;;;;;;;4.60;2.50;;;;;;;9.16;100.00;100787.16;6224236;28;20132;-75
2021/05/25 10:14:03;;;;;;;3.08;2.33;;;;;;;9.28;100.00;100778.72;6225299;28;20111;-74
2021/05/25 10:17:05;;;;;;;3.28;2.05;;;;;;;9.70;99.17;100776.72;6223347;28;20076;-75
2021/05/25 10:20:08;;;;;;;5.05;2.40;;;;;;;9.96;97.94;100783.31;6218553;28;20493;-75
2021/05/25 10:23:09;;;;;;;4.13;2.47;;;;;;;10.09;97.39;100782.63;6223950;28;20085;-75
2021/05/25 10:26:14;;;;;;;5.53;3.00;;;;;;;10.15;98.63;100787.53;6224871;28;20046;-75
2021/05/25 10:29:16;;;;;;;3.33;2.65;;;;;;;10.14;96.57;100788.47;6225263;28;20053;-75
2021/05/25 10:32:21;;;;;;;3.90;2.75;;;;;;;10.26;97.72;100786.19;6209720;28;20532;-75
2021/05/25 10:35:22;;;;;;;3.35;3.05;;;;;;;10.44;96.12;100784.38;6199778;28;20057;-73
2021/05/25 10:38:25;;;;;;;4.65;2.70;;;;;;;10.50;91.34;100782.28;6200486;28;20046;-75
2021/05/25 10:41:31;;;;;;;3.28;2.22;;;;;;;10.70;90.47;100785.63;6199554;28;20046;-74
2021/05/25 10:44:46;;;;;;;3.10;2.80;;;;;;;10.83;86.54;100776.16;6197570;28;20097;-75
2021/05/25 10:47:59;;;;;;;4.50;2.45;;;;;;;11.00;86.51;100783.16;6196588;28;20046;-74
2021/05/25 10:51:00;;;;;;;5.18;2.45;;;;;;;10.88;86.65;100774.97;6210355;28;20049;-74
2021/05/25 10:54:24;;;;;;;3.60;2.10;;;;;;;10.95;85.67;100772.03;6224269;28;20579;-74
2021/05/25 10:57:31;;;;;;;3.35;2.35;;;;;;;11.42;87.30;100762.34;6223613;28;20085;-74
2021/05/25 11:00:38;;;;;;;3.28;2.20;;;;;;;11.67;86.43;100766.19;6224480;28;20054;-72
2021/05/25 11:03:45;;;;;;;3.70;1.85;;;;;;;11.79;78.76;100769.91;6224252;28;20162;-72
2021/05/25 11:06:46;;;;;;;4.97;1.88;;;;;;;11.99;75.74;100766.13;6224242;28;20057;-75
2021/05/25 11:09:46;;;;;;;4.50;2.45;;;;;;;12.04;79.83;100759.69;6224044;28;20433;-75
2021/05/25 11:13:17;;;;;;;3.92;2.20;;;;;;;12.43;82.13;100764.34;6209685;28;20046;-73
2021/05/25 11:16:36;;;;;;;2.72;2.15;;;;;;;12.42;80.55;100759.16;6198618;28;20054;-72
2021/05/25 11:19:53;;;;;;;2.83;1.70;;;;;;;12.32;77.46;100745.69;6198440;28;20136;-72
2021/05/25 11:22:54;;;;;;;2.42;1.20;;;;;;;12.73;74.54;100767.84;6198966;28;20152;-71
2021/05/25 11:25:55;;;;;;;1.77;0.85;;;;;;;12.54;71.17;100765.50;6199328;28;20042;-72
2021/05/25 11:29:15;;;;;;;2.03;1.00;;;;;;;12.12;72.78;100778.50;6199343;28;20050;-71
2021/05/25 11:32:19;;;;;;;0.82;0.60;;;;;;;11.81;76.57;100774.16;6217208;28;20606;-73
2021/05/25 11:35:22;;;;;;;1.42;0.90;;;;;;;11.61;79.22;100790.25;6223145;28;20370;-73
2021/05/25 11:38:23;;;;;;;1.80;0.82;;;;;;;11.48;82.14;100787.44;6223421;28;20482;-75
2021/05/25 11:41:24;;;;;;;0.82;0.80;;;;;;;11.77;88.62;100791.06;6223271;28;20100;-73
2021/05/25 11:44:36;;;;;;;3.03;0.98;;;;;;;12.81;88.26;100790.16;6223432;28;20045;-74
2021/05/25 11:47:39;;;;;;;2.17;1.40;;;;;;;13.27;74.19;100781.16;6222831;28;20464;-71
2021/05/25 11:50:42;;;;;;;3.15;1.60;;;;;;;13.08;75.57;100770.88;6223077;28;20057;-74
2021/05/25 11:53:44;;;;;;;2.55;1.38;;;;;;;13.07;74.56;100772.66;6222096;28;20412;-74
2021/05/25 11:56:47;;;;;;;2.25;1.92;;;;;;;13.39;81.57;100769.78;6222620;28;20123;-73
2021/05/25 11:59:48;;;;;;;2.72;2.00;;;;;;;13.88;79.26;100771.88;6222854;28;20057;-74
2021/05/25 12:02:51;;;;;;;3.38;1.90;;;;;;;14.41;76.04;100765.59;6222659;28;20053;-73
2021/05/25 12:05:51;;;;;;;1.60;1.50;;;;;;;15.00;74.84;100766.81;6222684;28;20050;-73
2021/05/25 12:08:52;;;;;;;1.98;1.73;;;;;;;15.50;70.93;100760.50;6222639;28;20146;-73
2021/05/25 12:11:57;;;;;;;2.55;1.30;;;;;;;15.78;69.28;100759.31;6222489;28;20054;-74
2021/05/25 12:14:59;;;;;;;2.03;1.00;;;;;;;16.10;66.85;100756.03;6222717;28;20054;-74
2021/05/25 12:18:07;;;;;;;2.03;1.10;;;;;;;16.11;60.52;100747.13;6222322;28;20076;-74
2021/05/25 12:21:10;;;;;;;2.25;1.50;;;;;;;15.68;59.09;100753.88;6222205;28;20053;-75
2021/05/25 12:24:11;;;;;;;2.88;1.50;;;;;;;14.63;64.35;100759.69;6222814;28;20062;-74
2021/05/25 12:27:12;;;;;;;2.22;1.65;;;;;;;14.20;66.23;100772.34;6222028;28;20050;-74
2021/05/25 12:30:16;;;;;;;4.20;1.70;;;;;;;14.30;69.13;100757.53;6222576;28;20097;-74
2021/05/25 12:33:19;;;;;;;7.30;1.98;;;;;;;14.77;64.51;100747.28;6222452;28;20054;-75
2021/05/25 12:36:24;;;;;;;5.35;1.42;;;;;;;14.87;63.47;100740.38;6221858;28;20045;-75
2021/05/25 12:39:36;;;;;;;2.33;1.10;;;;;;;15.33;58.30;100737.06;6221898;28;20105;-74
2021/05/25 12:42:39;;;;;;;2.88;1.00;;;;;;;15.26;57.77;100733.16;6218066;28;20133;-75
2021/05/25 12:45:41;;;;;;;2.45;1.08;;;;;;;15.36;58.51;100734.19;6220570;28;20128;-75
2021/05/25 12:48:46;;;;;;;2.25;0.82;;;;;;;15.36;59.54;100735.03;6222271;28;20057;-74
2021/05/25 12:51:47;;;;;;;1.30;1.00;;;;;;;15.63;61.28;100736.59;6222044;28;20045;-75
2021/05/25 12:54:55;;;;;;;2.58;1.63;;;;;;;15.96;56.35;100736.72;6221885;28;20497;-75
2021/05/25 12:57:56;;;;;;;5.25;0.88;;;;;;;16.36;56.75;100724.88;6221514;28;20067;-76
2021/05/25 13:00:57;;;;;;;1.98;0.77;;;;;;;15.90;54.24;100741.66;6213564;28;20050;-75
2021/05/25 13:04:24;;;;;;;3.13;1.02;;;;;;;15.83;53.18;100743.06;6213734;28;20144;-76
2021/05/25 13:07:25;;;;;;;2.45;0.85;;;;;;;15.88;58.34;100739.09;6207853;28;20428;-75
2021/05/25 13:10:31;;;;;;;2.80;0.90;;;;;;;15.69;55.63;100749.41;6221876;28;20133;-75
2021/05/25 13:13:38;;;;;;;3.38;1.08;;;;;;;15.03;59.45;100742.75;6221658;28;20049;-75
2021/05/25 13:16:39;;;;;;;1.17;1.08;;;;;;;14.65;59.60;100760.41;6213318;28;20424;-75
2021/05/25 13:19:42;;;;;;;2.78;1.10;;;;;;;14.38;59.66;100764.94;6221667;28;20042;-76
2021/05/25 13:22:42;;;;;;;4.10;1.42;;;;;;;14.02;60.85;100763.84;6221605;28;20057;-75
2021/05/25 13:25:46;;;;;;;2.25;1.25;;;;;;;13.84;63.18;100778.28;6221157;28;20046;-76
2021/05/25 13:28:49;;;;;;;2.15;1.23;;;;;;;13.73;66.25;100788.75;6216075;28;20674;-75
2021/05/25 13:31:51;;;;;;;4.30;1.30;;;;;;;12.96;70.06;100806.81;6219195;28;20432;-75
2021/05/25 13:34:53;;;;;;;5.13;1.20;;;;;;;12.02;73.22;100803.69;6221651;28;20045;-75
2021/05/25 13:37:54;;;;;;;5.15;1.63;;;;;;;11.36;80.41;100823.22;6221287;28;20421;-75
2021/05/25 13:40:54;;;;;;;2.58;1.70;;;;;;;10.92;88.05;100825.63;6221628;28;20054;-75
2021/05/25 13:43:55;;;;;;;4.47;1.50;;;;;;;10.70;91.50;100825.06;6221613;28;20419;-76
2021/05/25 13:46:56;;;;;;;4.25;1.30;;;;;;;10.35;93.94;100827.72;6224233;28;20080;-76
2021/05/25 13:49:58;;;;;;;5.05;1.40;;;;;;;10.18;93.35;100852.22;6226100;28;20144;-77
2021/05/25 13:52:59;;;;;;;6.13;2.28;;;;;;;10.02;95.45;100851.25;6225958;28;20489;-75
2021/05/25 13:56:01;;;;;;;5.65;2.60;;;;;;;9.76;97.69;100840.25;6225787;28;20049;-76
2021/05/25 13:59:10;;;;;;;3.03;2.22;;;;;;;9.67;100.00;100832.81;6225917;28;20053;-76
2021/05/25 14:02:13;;;;;;;4.80;2.65;;;;;;;9.57;100.00;100837.66;6225783;28;20489;-76
2021/05/25 14:05:15;;;;;;;5.60;3.03;;;;;;;9.52;100.00;100846.69;6225355;28;20492;-76
2021/05/25 14:08:15;;;;;;;7.03;3.80;;;;;;;9.58;100.00;100863.00;6226052;28;20457;-76
2021/05/25 14:11:18;;;;;;;9.80;3.55;;;;;;;9.43;100.00;100862.84;6225484;28;20096;-78
2021/05/25 14:14:18;;;;;;;7.63;4.63;;;;;;;9.37;100.00;100872.72;6226255;28;20052;-79